Time;durP1;ratioP1;P1;durP2;ratioP2;P2;SDS_P1;SDS_P2;PMS_P1;PMS_P2;Temp;Humidity;BMP_temperature;BMP_pressure;BME280_temperature;BME280_humidity;BME280_pressure;Samples;Min_cycle;Max_cycle;Signal;HPM_P1;HPM_P2
2022/12/04 00:02:22;;;;;;;;;;;;;;;17.17;44.02;102236.38;5055862;28;1914;-52
2022/12/04 00:04:47;;;;;;;;;;;;;;;16.46;45.68;102232.81;5055622;28;1036;-53
2022/12/04 00:07:13;;;;;;;;;;;;;;;17.73;43.09;102238.63;5056425;28;1183;-52
2022/12/04 00:09:39;;;;;;;;;;;;;;;16.96;44.31;102229.59;5055748;28;1171;-53
2022/12/04 00:12:04;;;;;;;;;;;;;;;16.46;45.69;102236.38;5056980;28;1190;-51
2022/12/04 00:14:30;;;;;;;;;;;;;;;17.40;43.43;102230.00;5056294;28;1243;-53
2022/12/04 00:16:55;;;;;;;;;;;;;;;17.03;44.37;102224.81;5055505;28;1152;-48
2022/12/04 00:19:21;;;;;;;;;;;;;;;16.45;45.64;102236.63;5056187;28;1156;-50
2022/12/04 00:21:48;;;;;;;;;;;;;;;16.74;45.19;102237.59;5056144;28;1972;-53
2022/12/04 00:24:13;;;;;;;;;;;;;;;17.45;43.39;102243.84;5056347;28;1140;-54
2022/12/04 00:26:38;;;;;;;;;;;;;;;16.58;45.51;102250.13;5055831;28;1183;-50
2022/12/04 00:29:04;;;;;;;;;;;;;;;16.85;44.96;102244.16;5055857;28;886;-51
2022/12/04 00:31:29;;;;;;;;;;;;;;;17.43;43.35;102242.41;5055960;28;1155;-51
2022/12/04 00:33:55;;;;;;;;;;;;;;;16.55;45.39;102242.34;5058873;28;1148;-49
2022/12/04 00:36:21;;;;;;;;;;;;;;;16.58;45.44;102239.16;5059751;28;1267;-51
2022/12/04 00:38:46;;;;;;;;;;;;;;;17.62;42.68;102238.41;5060259;28;1183;-49
2022/12/04 00:41:13;;;;;;;;;;;;;;;16.65;44.93;102239.88;5059448;28;1906;-51
2022/12/04 00:43:38;;;;;;;;;;;;;;;16.63;45.34;102239.25;5060002;28;1163;-49
2022/12/04 00:46:04;;;;;;;;;;;;;;;17.69;42.67;102232.75;5059771;28;1151;-51
2022/12/04 00:48:29;;;;;;;;;;;;;;;16.70;44.85;102236.38;5059752;28;1180;-50
2022/12/04 00:50:54;;;;;;;;;;;;;;;16.27;46.12;102232.06;5059622;28;1143;-53
2022/12/04 00:53:20;;;;;;;;;;;;;;;17.27;43.57;102235.75;5059198;28;918;-52
2022/12/04 00:55:45;;;;;;;;;;;;;;;16.99;44.00;102239.28;5041625;28;1179;-53
2022/12/04 00:58:11;;;;;;;;;;;;;;;16.38;45.47;102233.97;5059561;28;1144;-51
2022/12/04 01:00:37;;;;;;;;;;;;;;;16.45;45.51;102233.88;5059990;28;1144;-48
2022/12/04 01:03:02;;;;;;;;;;;;;;;17.69;42.67;102230.00;5059778;28;1913;-50
2022/12/04 01:05:28;;;;;;;;;;;;;;;16.64;44.78;102235.44;5059362;28;898;-51
2022/12/04 01:07:53;;;;;;;;;;;;;;;16.27;45.77;102229.31;5058989;28;1108;-53
2022/12/04 01:10:19;;;;;;;;;;;;;;;17.81;42.64;102229.13;5059194;28;1455;-50
2022/12/04 01:12:44;;;;;;;;;;;;;;;16.72;44.79;102234.25;5059590;28;1141;-51
2022/12/04 01:15:10;;;;;;;;;;;;;;;16.24;45.80;102227.88;5059151;28;1179;-53
2022/12/04 01:17:35;;;;;;;;;;;;;;;17.48;43.32;102230.69;5058786;28;1037;-48
2022/12/04 01:20:01;;;;;;;;;;;;;;;16.90;44.21;102236.91;5059894;28;1227;-52
2022/12/04 01:22:26;;;;;;;;;;;;;;;16.31;45.65;102239.56;5059293;28;1906;-52
2022/12/04 01:24:55;;;;;;;;;;;;;;;17.73;42.62;102231.19;5059080;28;1132;-50
2022/12/04 01:27:20;;;;;;;;;;;;;;;16.73;44.84;102235.91;5044707;28;1006;-51
2022/12/04 01:29:46;;;;;;;;;;;;;;;16.48;45.29;102238.88;5058663;28;870;-52
2022/12/04 01:32:11;;;;;;;;;;;;;;;17.60;42.60;102228.75;5058588;28;1263;-52
2022/12/04 01:34:37;;;;;;;;;;;;;;;16.59;45.09;102230.66;5058756;28;1393;-53
2022/12/04 01:37:02;;;;;;;;;;;;;;;16.68;45.02;102239.38;5058975;28;1183;-54
2022/12/04 01:39:27;;;;;;;;;;;;;;;17.54;42.76;102225.03;5058562;28;1156;-52
2022/12/04 01:41:53;;;;;;;;;;;;;;;16.61;45.20;102224.94;5058833;28;1960;-48
2022/12/04 01:44:19;;;;;;;;;;;;;;;17.04;44.06;102221.00;5052607;28;1282;-50
2022/12/04 01:46:45;;;;;;;;;;;;;;;17.36;43.08;102205.97;5050576;28;1117;-51
2022/12/04 01:49:12;;;;;;;;;;;;;;;16.57;45.04;102215.50;5058499;28;1140;-53
2022/12/04 01:51:42;;;;;;;;;;;;;;;16.58;45.10;102219.94;5032761;28;1113;-51
2022/12/04 01:54:10;;;;;;;;;;;;;;;17.64;42.51;102226.31;5057991;28;1089;-52
2022/12/04 01:56:36;;;;;;;;;;;;;;;16.65;44.90;102223.38;5058812;28;1152;-50
2022/12/04 01:59:02;;;;;;;;;;;;;;;16.47;45.32;102218.84;5057983;28;1270;-52
2022/12/04 02:01:28;;;;;;;;;;;;;;;17.78;42.22;102214.78;5040686;28;1898;-52
2022/12/04 02:03:53;;;;;;;;;;;;;;;16.70;44.86;102217.16;5040186;28;1218;-50
2022/12/04 02:06:19;;;;;;;;;;;;;;;16.35;45.79;102213.31;5051128;28;1218;-49
2022/12/04 02:08:44;;;;;;;;;;;;;;;17.25;43.60;102215.91;5058054;28;1128;-52
2022/12/04 02:11:12;;;;;;;;;;;;;;;17.23;43.39;102215.34;5058188;28;1152;-50
2022/12/04 02:13:41;;;;;;;;;;;;;;;16.47;45.51;102216.09;5040508;28;1214;-50
2022/12/04 02:16:22;;;;;;;;;;;;;;;16.43;45.41;102215.72;5057698;28;1171;-48
2022/12/04 02:18:50;;;;;;;;;;;;;;;17.69;42.45;102218.19;5040370;28;1148;-47
2022/12/04 02:21:16;;;;;;;;;;;;;;;16.65;44.75;102220.63;5058096;28;1898;-51
2022/12/04 02:24:00;;;;;;;;;;;;;;;16.47;45.50;102220.75;5057912;28;1305;-48
2022/12/04 02:26:31;;;;;;;;;;;;;;;17.56;42.71;102213.81;5058440;28;1156;-49
2022/12/04 02:29:06;;;;;;;;;;;;;;;16.55;45.20;102220.38;5057738;28;1155;-50
2022/12/04 02:31:33;;;;;;;;;;;;;;;16.19;46.21;102222.25;5057534;28;1226;-51
2022/12/04 02:34:12;;;;;;;;;;;;;;;17.74;42.40;102221.00;5040221;28;1183;-51
2022/12/04 02:36:43;;;;;;;;;;;;;;;16.69;44.95;102232.81;5039997;28;1257;-50
2022/12/04 02:39:08;;;;;;;;;;;;;;;16.24;45.81;102225.13;5039887;28;1235;-53
2022/12/04 02:41:47;;;;;;;;;;;;;;;17.72;42.49;102225.94;5056925;28;1890;-51
2022/12/04 02:44:15;;;;;;;;;;;;;;;16.66;45.02;102227.81;5039748;28;1124;-49
2022/12/04 02:46:44;;;;;;;;;;;;;;;16.22;45.88;102225.34;5039730;28;1180;-49
2022/12/04 02:49:20;;;;;;;;;;;;;;;17.51;43.17;102224.69;5057660;28;1199;-53
2022/12/04 02:51:46;;;;;;;;;;;;;;;16.84;44.53;102224.06;5038657;28;1378;-49
2022/12/04 02:54:13;;;;;;;;;;;;;;;16.32;45.69;102223.94;5055532;28;1069;-53
2022/12/04 02:56:40;;;;;;;;;;;;;;;17.37;43.34;102224.97;5057718;28;1132;-51
2022/12/04 02:59:13;;;;;;;;;;;;;;;17.02;43.98;102217.63;5038192;28;987;-51
2022/12/04 03:01:39;;;;;;;;;;;;;;;16.36;45.58;102219.66;5039238;28;1903;-54
2022/12/04 03:04:07;;;;;;;;;;;;;;;17.24;43.63;102215.09;5039726;28;1171;-51
2022/12/04 03:06:33;;;;;;;;;;;;;;;17.17;43.40;102208.06;5039447;28;890;-49
2022/12/04 03:09:00;;;;;;;;;;;;;;;16.45;45.40;102217.41;5039231;28;1191;-51
2022/12/04 03:11:25;;;;;;;;;;;;;;;17.36;43.30;102217.81;5039236;28;1144;-48
2022/12/04 03:13:53;;;;;;;;;;;;;;;16.89;44.33;102210.50;5039175;28;1156;-48
2022/12/04 03:16:20;;;;;;;;;;;;;;;16.37;45.58;102216.69;5050178;28;1199;-48
2022/12/04 03:18:46;;;;;;;;;;;;;;;16.64;45.13;102227.19;5056616;28;994;-47
2022/12/04 03:21:18;;;;;;;;;;;;;;;17.44;43.14;102225.66;5047783;28;1195;-46
2022/12/04 03:23:48;;;;;;;;;;;;;;;16.53;45.19;102230.78;5057018;28;1132;-47
2022/12/04 03:26:25;;;;;;;;;;;;;;;16.21;45.90;102217.38;5057209;28;1210;-53
2022/12/04 03:28:52;;;;;;;;;;;;;;;17.72;42.54;102225.94;5056628;28;1223;-51
2022/12/04 03:31:20;;;;;;;;;;;;;;;16.68;44.76;102220.16;5038564;28;1172;-48
2022/12/04 03:33:45;;;;;;;;;;;;;;;16.56;45.15;102224.81;5056671;28;1112;-50
2022/12/04 03:36:11;;;;;;;;;;;;;;;17.55;42.55;102212.13;5038928;28;1109;-50
2022/12/04 03:38:43;;;;;;;;;;;;;;;16.61;44.91;102224.94;5056599;28;1132;-48
2022/12/04 03:41:29;;;;;;;;;;;;;;;16.40;45.64;102229.09;5056461;28;1179;-48
2022/12/04 03:44:01;;;;;;;;;;;;;;;17.66;42.65;102211.25;5038449;28;1195;-49
2022/12/04 03:46:28;;;;;;;;;;;;;;;16.59;45.00;102211.44;5055928;28;1301;-50
2022/12/04 03:49:12;;;;;;;;;;;;;;;16.67;44.83;102220.41;5038838;28;1144;-49
2022/12/04 03:51:39;;;;;;;;;;;;;;;17.21;43.66;102217.50;5056076;28;1132;-49
2022/12/04 03:54:08;;;;;;;;;;;;;;;16.49;45.12;102221.34;5055741;28;1008;-53
2022/12/04 03:56:54;;;;;;;;;;;;;;;17.27;43.49;102230.25;5056459;28;1124;-50
2022/12/04 03:59:25;;;;;;;;;;;;;;;17.05;43.64;102216.31;5054080;28;1191;-61
2022/12/04 04:01:51;;;;;;;;;;;;;;;16.42;45.25;102225.06;5056102;28;1980;-60
2022/12/04 04:04:17;;;;;;;;;;;;;;;17.01;44.35;102226.97;5038833;28;1239;-59
2022/12/04 04:06:45;;;;;;;;;;;;;;;17.32;43.12;102233.13;5038074;28;952;-59
2022/12/04 04:09:18;;;;;;;;;;;;;;;16.50;45.12;102231.25;5038242;28;1228;-58
2022/12/04 04:11:46;;;;;;;;;;;;;;;16.15;45.94;102221.88;5056665;28;1139;-59
2022/12/04 04:25:18;;;;;;;;;;;;;;;16.44;45.24;102233.03;5041074;28;1200;-54
2022/12/04 04:27:53;;;;;;;;;;;;;;;16.68;44.90;102233.88;5055989;28;1116;-56
2022/12/04 04:30:18;;;;;;;;;;;;;;;17.30;43.36;102245.44;5037839;28;1215;-57
2022/12/04 04:33:02;;;;;;;;;;;;;;;16.47;45.38;102243.53;5056215;28;1211;-48
2022/12/04 04:35:46;;;;;;;;;;;;;;;16.52;45.42;102246.44;5055603;28;1167;-53
2022/12/04 04:38:15;;;;;;;;;;;;;;;17.29;43.55;102244.59;5055727;28;1171;-54
2022/12/04 04:40:43;;;;;;;;;;;;;;;16.46;45.59;102258.34;5055694;28;1175;-50
2022/12/04 04:43:09;;;;;;;;;;;;;;;16.07;46.27;102258.75;5055870;28;1968;-52
2022/12/04 04:45:44;;;;;;;;;;;;;;;17.18;43.82;102256.44;5055333;28;1203;-58
2022/12/04 04:48:10;;;;;;;;;;;;;;;16.85;44.35;102269.72;5038424;28;1164;-59
2022/12/04 04:50:35;;;;;;;;;;;;;;;16.26;45.77;102258.66;5056013;28;1219;-58
2022/12/04 04:53:02;;;;;;;;;;;;;;;17.45;43.39;102268.59;5037966;28;1156;-61
2022/12/04 04:55:28;;;;;;;;;;;;;;;16.89;44.27;102267.38;5037719;28;979;-60
2022/12/04 04:57:53;;;;;;;;;;;;;;;16.30;45.76;102265.38;5032599;28;1199;-55
2022/12/04 05:00:20;;;;;;;;;;;;;;;17.01;44.49;102267.34;5038679;28;1529;-56
2022/12/04 05:02:47;;;;;;;;;;;;;;;17.25;43.60;102259.91;5039816;28;1910;-56
2022/12/04 05:05:12;;;;;;;;;;;;;;;16.50;45.29;102261.47;5034981;28;1223;-51
2022/12/04 05:07:38;;;;;;;;;;;;;;;16.88;44.55;102260.16;5055422;28;1088;-51
2022/12/04 05:10:04;;;;;;;;;;;;;;;17.22;43.55;102254.88;5055372;28;1116;-53
2022/12/04 05:12:29;;;;;;;;;;;;;;;16.47;45.39;102254.53;5055771;28;1214;-53
2022/12/04 05:14:55;;;;;;;;;;;;;;;16.94;44.65;102256.47;5055329;28;1132;-54
2022/12/04 05:17:20;;;;;;;;;;;;;;;17.27;43.59;102255.00;5059357;28;2409;-53
2022/12/04 05:19:57;;;;;;;;;;;;;;;16.49;45.35;102257.84;5057511;28;1940;-51
2022/12/04 05:22:30;;;;;;;;;;;;;;;16.51;45.63;102260.38;5058121;28;1902;-50
2022/12/04 05:24:55;;;;;;;;;;;;;;;17.43;43.39;102258.91;5058261;28;1869;-49
2022/12/04 05:27:22;;;;;;;;;;;;;;;16.56;45.10;102257.75;5065031;28;1874;-50
2022/12/04 05:29:47;;;;;;;;;;;;;;;16.22;46.21;102263.78;5057835;28;2103;-52
2022/12/04 05:32:13;;;;;;;;;;;;;;;17.70;42.54;102261.94;5056582;28;1896;-51
2022/12/04 05:34:38;;;;;;;;;;;;;;;16.72;44.93;102262.56;5045940;28;1294;-52
2022/12/04 05:37:04;;;;;;;;;;;;;;;16.25;45.93;102266.06;5057976;28;1108;-53
2022/12/04 05:39:29;;;;;;;;;;;;;;;17.54;43.20;102273.72;5049596;28;1175;-51
2022/12/04 05:41:54;;;;;;;;;;;;;;;16.85;44.32;102271.63;5041405;28;1969;-52
2022/12/04 05:44:20;;;;;;;;;;;;;;;16.37;45.66;102277.06;5057870;28;1267;-51
2022/12/04 05:46:45;;;;;;;;;;;;;;;16.07;46.26;102268.88;5058057;28;1183;-51
2022/12/04 05:49:11;;;;;;;;;;;;;;;17.61;43.04;102268.91;5058015;28;1282;-52
2022/12/04 05:51:36;;;;;;;;;;;;;;;16.72;44.98;102268.03;5057828;28;1250;-50
2022/12/04 05:54:02;;;;;;;;;;;;;;;16.29;45.85;102280.16;5057387;28;1322;-51
2022/12/04 05:56:27;;;;;;;;;;;;;;;17.65;42.96;102272.84;5057688;28;1156;-52
2022/12/04 05:58:52;;;;;;;;;;;;;;;16.71;44.91;102282.84;5058143;28;1193;-50
2022/12/04 06:01:19;;;;;;;;;;;;;;;16.33;45.86;102286.03;5057929;28;1976;-48
2022/12/04 06:03:44;;;;;;;;;;;;;;;16.48;45.58;102272.69;5058247;28;1100;-52
2022/12/04 06:06:11;;;;;;;;;;;;;;;17.60;42.94;102273.56;5057718;28;1321;-49
2022/12/04 06:08:36;;;;;;;;;;;;;;;16.57;45.08;102281.41;5057617;28;1198;-51
2022/12/04 06:11:08;;;;;;;;;;;;;;;16.21;45.96;102285.97;5058107;28;1147;-52
2022/12/04 06:13:33;;;;;;;;;;;;;;;17.61;42.95;102290.91;5057071;28;1116;-47
2022/12/04 06:15:59;;;;;;;;;;;;;;;17.02;44.14;102294.59;5057471;28;1195;-50
2022/12/04 06:18:24;;;;;;;;;;;;;;;16.48;45.50;102291.06;5056852;28;1247;-48
2022/12/04 06:20:50;;;;;;;;;;;;;;;16.94;44.52;102292.19;5057206;28;1199;-50
2022/12/04 06:23:15;;;;;;;;;;;;;;;17.18;43.53;102292.19;5057302;28;1917;-51
2022/12/04 06:25:40;;;;;;;;;;;;;;;16.47;45.63;102298.47;5057379;28;1239;-49
2022/12/04 06:28:06;;;;;;;;;;;;;;;17.57;43.29;102297.97;5056572;28;1203;-50
2022/12/04 06:30:32;;;;;;;;;;;;;;;16.65;45.21;102293.94;5056491;28;1196;-50
2022/12/04 06:32:57;;;;;;;;;;;;;;;17.10;44.17;102293.41;5057365;28;2568;-49
2022/12/04 06:35:23;;;;;;;;;;;;;;;16.42;45.62;102292.81;5056905;28;1262;-49
2022/12/04 06:37:48;;;;;;;;;;;;;;;16.38;45.83;102295.22;5056559;28;1230;-48
2022/12/04 06:40:14;;;;;;;;;;;;;;;17.12;43.75;102304.16;5057081;28;1243;-48
2022/12/04 06:42:39;;;;;;;;;;;;;;;16.52;45.36;102300.50;5056898;28;1914;-47
2022/12/04 06:45:05;;;;;;;;;;;;;;;18.42;41.32;102289.97;5057414;28;1123;-50
2022/12/04 06:47:30;;;;;;;;;;;;;;;17.15;43.72;102298.16;5057029;28;1175;-49
2022/12/04 06:49:57;;;;;;;;;;;;;;;16.52;44.94;102295.00;5056689;28;1832;-49
2022/12/04 06:52:23;;;;;;;;;;;;;;;17.87;42.67;102294.19;5057118;28;1207;-49
2022/12/04 06:54:48;;;;;;;;;;;;;;;16.79;44.49;102292.66;5056589;28;1214;-50
2022/12/04 06:57:13;;;;;;;;;;;;;;;16.41;45.13;102303.00;5056562;28;1179;-48
2022/12/04 06:59:39;;;;;;;;;;;;;;;17.25;43.69;102281.88;5057081;28;1120;-49
2022/12/04 07:02:04;;;;;;;;;;;;;;;16.36;45.50;102300.09;5056521;28;2041;-49
2022/12/04 07:04:30;;;;;;;;;;;;;;;18.05;42.20;102288.50;5056259;28;1191;-50
2022/12/04 07:06:55;;;;;;;;;;;;;;;17.30;43.63;102290.25;5056238;28;1108;-50
2022/12/04 07:09:22;;;;;;;;;;;;;;;16.56;45.30;102290.72;5056619;28;1203;-50
2022/12/04 07:11:47;;;;;;;;;;;;;;;17.24;44.20;102291.25;5042819;28;1203;-50
2022/12/04 07:14:13;;;;;;;;;;;;;;;16.92;44.60;102292.44;5047122;28;1152;-50
2022/12/04 07:16:39;;;;;;;;;;;;;;;17.34;44.02;102282.38;5038146;28;1156;-50
2022/12/04 07:19:04;;;;;;;;;;;;;;;18.46;41.24;102297.47;5056145;28;1120;-50
2022/12/04 07:21:30;;;;;;;;;;;;;;;17.08;43.92;102296.41;5056246;28;1898;-51
2022/12/04 07:23:59;;;;;;;;;;;;;;;17.28;43.91;102304.25;5056250;28;1092;-49
2022/12/04 07:26:25;;;;;;;;;;;;;;;17.22;43.65;102301.63;5056244;28;1283;-47
2022/12/04 07:28:50;;;;;;;;;;;;;;;16.59;44.81;102301.22;5055758;28;1222;-48
2022/12/04 07:31:17;;;;;;;;;;;;;;;18.13;42.29;102304.63;5055390;28;2377;-47
2022/12/04 07:33:43;;;;;;;;;;;;;;;16.92;44.62;102305.34;5056084;28;1230;-49
2022/12/04 07:36:10;;;;;;;;;;;;;;;16.95;44.68;102304.88;5055989;28;1124;-50
2022/12/04 07:38:36;;;;;;;;;;;;;;;17.42;43.35;102299.34;5055912;28;1140;-50
2022/12/04 07:41:02;;;;;;;;;;;;;;;17.51;43.40;102308.03;5056467;28;1108;-49
2022/12/04 07:43:27;;;;;;;;;;;;;;;19.07;40.00;102302.34;5054848;28;1980;-49
2022/12/04 07:45:53;;;;;;;;;;;;;;;17.65;42.81;102305.84;5055785;28;1175;-50
2022/12/04 07:48:18;;;;;;;;;;;;;;;16.98;44.17;102312.63;5055772;28;1135;-50
2022/12/04 07:50:44;;;;;;;;;;;;;;;17.88;42.36;102307.69;5055968;28;1147;-48
2022/12/04 07:53:09;;;;;;;;;;;;;;;17.00;44.47;102312.38;5055871;28;1103;-50
2022/12/04 07:55:35;;;;;;;;;;;;;;;18.78;40.90;102305.16;5055402;28;1155;-51
2022/12/04 07:58:00;;;;;;;;;;;;;;;17.86;42.77;102314.53;5055916;28;1179;-50
2022/12/04 08:00:25;;;;;;;;;;;;;;;17.15;44.05;102315.47;5055385;28;1135;-50
2022/12/04 08:02:51;;;;;;;;;;;;;;;16.84;44.91;102316.66;5055293;28;1971;-50
2022/12/04 08:05:16;;;;;;;;;;;;;;;17.38;43.95;102309.13;5055697;28;1206;-49
2022/12/04 08:07:42;;;;;;;;;;;;;;;16.83;44.58;102314.97;5051262;28;1440;-49
2022/12/04 08:10:07;;;;;;;;;;;;;;;17.91;43.03;102311.91;5056016;28;1170;-50
2022/12/04 08:12:33;;;;;;;;;;;;;;;17.22;43.82;102307.13;5055131;28;1124;-50
2022/12/04 08:14:58;;;;;;;;;;;;;;;16.74;44.65;102301.59;5055900;28;1112;-49
2022/12/04 08:17:24;;;;;;;;;;;;;;;17.77;43.36;102308.56;5055585;28;1180;-51
2022/12/04 08:19:49;;;;;;;;;;;;;;;16.92;44.59;102289.69;5055303;28;1135;-50
2022/12/04 08:22:15;;;;;;;;;;;;;;;17.34;44.00;102288.69;5055731;28;1906;-45
2022/12/04 08:24:40;;;;;;;;;;;;;;;17.96;42.42;102292.72;5055462;28;1155;-49
2022/12/04 08:27:05;;;;;;;;;;;;;;;16.98;44.54;102287.91;5041305;28;1187;-47
2022/12/04 08:29:31;;;;;;;;;;;;;;;17.68;43.38;102301.78;5041819;28;1069;-47
2022/12/04 08:31:57;;;;;;;;;;;;;;;17.31;44.10;102286.44;5054952;28;2233;-49
2022/12/04 08:34:22;;;;;;;;;;;;;;;16.77;44.88;102281.06;5055130;28;1139;-48
2022/12/04 08:36:48;;;;;;;;;;;;;;;18.26;42.30;102286.13;5055450;28;1115;-49
2022/12/04 08:39:13;;;;;;;;;;;;;;;17.07;44.57;102280.97;5055206;28;1085;-48
2022/12/04 08:41:38;;;;;;;;;;;;;;;17.44;43.85;102277.91;5055533;28;1914;-48
2022/12/04 08:44:04;;;;;;;;;;;;;;;17.86;42.72;102270.50;5055297;28;1128;-50
2022/12/04 08:46:29;;;;;;;;;;;;;;;16.90;44.87;102297.34;5049605;28;1177;-50
2022/12/04 08:48:55;;;;;;;;;;;;;;;17.84;43.25;102284.50;5046552;28;1117;-48
2022/12/04 08:51:22;;;;;;;;;;;;;;;17.20;44.18;102268.88;5055249;28;1127;-45
2022/12/04 08:53:47;;;;;;;;;;;;;;;17.79;43.34;102274.25;5056404;28;1183;-47
2022/12/04 08:56:13;;;;;;;;;;;;;;;18.60;41.12;102266.88;5058802;28;1081;-49
2022/12/04 08:58:38;;;;;;;;;;;;;;;17.28;43.81;102264.94;5058798;28;1124;-49
2022/12/04 09:01:04;;;;;;;;;;;;;;;16.89;44.75;102284.69;5059129;28;1824;-51
2022/12/04 09:03:30;;;;;;;;;;;;;;;18.16;42.24;102274.91;5059400;28;1979;-50
2022/12/04 09:05:57;;;;;;;;;;;;;;;17.20;43.94;102263.38;5059081;28;1180;-47
2022/12/04 09:08:23;;;;;;;;;;;;;;;17.07;44.58;102269.16;5054792;28;1108;-56
2022/12/04 09:10:48;;;;;;;;;;;;;;;17.33;44.07;102262.28;5048415;28;1222;-55
2022/12/04 09:13:13;;;;;;;;;;;;;;;17.78;43.45;102260.69;5058550;28;1112;-57
2022/12/04 09:15:39;;;;;;;;;;;;;;;19.27;39.74;102252.16;5058952;28;1136;-55
2022/12/04 09:18:05;;;;;;;;;;;;;;;17.67;43.32;102240.44;5058829;28;1124;-56
2022/12/04 09:20:31;;;;;;;;;;;;;;;17.09;44.22;102243.06;5058735;28;1159;-55
2022/12/04 09:22:57;;;;;;;;;;;;;;;17.81;43.12;102235.47;5058043;28;1918;-55
2022/12/04 09:25:22;;;;;;;;;;;;;;;17.06;44.46;102240.81;5058054;28;1131;-55
2022/12/04 09:27:47;;;;;;;;;;;;;;;17.36;44.35;102234.31;5058865;28;1179;-61
2022/12/04 09:30:13;;;;;;;;;;;;;;;17.39;43.79;102225.56;5058445;28;1088;-57
2022/12/04 09:32:38;;;;;;;;;;;;;;;16.83;44.67;102221.56;5057909;28;2544;-57
2022/12/04 09:35:04;;;;;;;;;;;;;;;17.81;43.39;102213.47;5058282;28;1500;-57
2022/12/04 09:37:31;;;;;;;;;;;;;;;17.24;44.11;102209.59;5058668;28;1135;-57
2022/12/04 09:39:56;;;;;;;;;;;;;;;16.71;44.94;102205.09;5046314;28;1041;-58
2022/12/04 09:42:30;;;;;;;;;;;;;;;16.97;44.75;102198.31;5052237;28;1977;-58
2022/12/04 09:45:03;;;;;;;;;;;;;;;17.17;44.50;102194.34;5022493;28;925;-57
2022/12/04 09:47:47;;;;;;;;;;;;;;;18.03;42.79;102197.06;5041946;28;1093;-57
2022/12/04 09:50:31;;;;;;;;;;;;;;;18.80;40.67;102187.28;5058229;28;1171;-59
2022/12/04 09:52:56;;;;;;;;;;;;;;;17.36;44.02;102192.22;5021961;28;1082;-59
2022/12/04 09:55:41;;;;;;;;;;;;;;;17.01;44.46;102187.66;5037097;28;1044;-58
2022/12/04 09:58:09;;;;;;;;;;;;;;;17.54;43.66;102180.19;5057008;28;1168;-58
2022/12/04 10:00:35;;;;;;;;;;;;;;;16.88;44.60;102178.59;5023423;28;1200;-58
2022/12/04 10:03:02;;;;;;;;;;;;;;;18.28;42.13;102179.31;5039907;28;2676;-60
2022/12/04 10:05:30;;;;;;;;;;;;;;;17.00;44.86;102174.97;5050935;28;1255;-59
2022/12/04 10:08:05;;;;;;;;;;;;;;;18.38;41.93;102173.13;5055044;28;1133;-59
2022/12/04 10:10:30;;;;;;;;;;;;;;;17.94;42.91;102165.56;5039760;28;1227;-56
2022/12/04 10:13:16;;;;;;;;;;;;;;;17.23;44.13;102166.69;5057282;28;1108;-59
2022/12/04 10:15:41;;;;;;;;;;;;;;;18.02;42.95;102169.81;5056564;28;1526;-58
2022/12/04 10:18:19;;;;;;;;;;;;;;;17.16;44.44;102170.66;5057245;28;1203;-58
2022/12/04 10:20:48;;;;;;;;;;;;;;;16.84;44.74;102169.13;5057026;28;1171;-59
2022/12/04 10:23:14;;;;;;;;;;;;;;;17.58;43.60;102162.13;5057289;28;1918;-58
2022/12/04 10:25:39;;;;;;;;;;;;;;;16.76;45.18;102164.03;5057331;28;1191;-59
2022/12/04 10:28:22;;;;;;;;;;;;;;;16.81;45.39;102161.38;5057020;28;1266;-59
2022/12/04 10:30:47;;;;;;;;;;;;;;;17.04;44.79;102162.44;5038839;28;1842;-57
2022/12/04 10:33:15;;;;;;;;;;;;;;;17.27;44.74;102162.38;5049240;28;1223;-58
2022/12/04 10:35:41;;;;;;;;;;;;;;;18.43;41.76;102156.69;5056810;28;1215;-59
2022/12/04 10:38:22;;;;;;;;;;;;;;;17.22;44.27;102148.53;5038738;28;1314;-57
2022/12/04 10:40:50;;;;;;;;;;;;;;;18.27;42.34;102147.34;5056503;28;1124;-57
2022/12/04 10:43:35;;;;;;;;;;;;;;;17.52;43.92;102146.63;5039173;28;1977;-57
2022/12/04 10:46:00;;;;;;;;;;;;;;;18.03;43.06;102155.78;5037965;28;1025;-59
2022/12/04 10:48:34;;;;;;;;;;;;;;;18.37;41.80;102144.78;5056559;28;1461;-57
2022/12/04 10:50:59;;;;;;;;;;;;;;;17.21;44.54;102143.28;5056676;28;1187;-60
2022/12/04 10:53:32;;;;;;;;;;;;;;;16.99;44.62;102152.19;5056230;28;1271;-60
2022/12/04 10:56:07;;;;;;;;;;;;;;;17.87;43.16;102132.66;5038542;28;1254;-60
2022/12/04 10:58:32;;;;;;;;;;;;;;;17.02;44.74;102129.69;5056235;28;1167;-59
2022/12/04 11:01:00;;;;;;;;;;;;;;;18.80;41.22;102123.03;5056384;28;2354;-58
2022/12/04 11:03:26;;;;;;;;;;;;;;;17.57;43.69;102135.69;5038579;28;1909;-59
2022/12/04 11:05:54;;;;;;;;;;;;;;;17.00;44.75;102137.38;5038435;28;1275;-58
2022/12/04 11:08:23;;;;;;;;;;;;;;;17.07;44.93;102137.25;5038466;28;1192;-59
2022/12/04 11:10:56;;;;;;;;;;;;;;;17.71;43.24;102116.97;5038434;28;1116;-56
2022/12/04 11:13:22;;;;;;;;;;;;;;;16.98;44.86;102127.69;5053090;28;1214;-58
2022/12/04 11:15:48;;;;;;;;;;;;;;;17.64;43.84;102119.88;5046197;28;1124;-57
2022/12/04 11:18:24;;;;;;;;;;;;;;;17.14;44.54;102115.09;5054864;28;1151;-61
2022/12/04 11:21:02;;;;;;;;;;;;;;;17.92;43.41;102115.41;5044963;28;1199;-57
2022/12/04 11:23:28;;;;;;;;;;;;;;;18.25;42.07;102108.25;5056151;28;1918;-60
2022/12/04 11:25:54;;;;;;;;;;;;;;;17.27;44.31;102123.06;5056074;28;1222;-58
2022/12/04 11:28:23;;;;;;;;;;;;;;;16.94;44.91;102121.84;5021927;28;1133;-59
2022/12/04 11:30:53;;;;;;;;;;;;;;;17.92;43.05;102115.41;5038205;28;2287;-58
2022/12/04 11:33:24;;;;;;;;;;;;;;;16.97;44.84;102110.38;5056267;28;1214;-60
2022/12/04 11:35:50;;;;;;;;;;;;;;;17.31;44.72;102121.47;5042240;28;1082;-57
2022/12/04 11:38:16;;;;;;;;;;;;;;;17.41;44.31;102120.84;5055858;28;1167;-57
2022/12/04 11:40:51;;;;;;;;;;;;;;;17.14;44.87;102113.19;5056010;28;1120;-59
2022/12/04 11:43:16;;;;;;;;;;;;;;;18.73;41.18;102114.97;5056236;28;1902;-59
2022/12/04 11:46:02;;;;;;;;;;;;;;;17.30;44.45;102114.31;5055754;28;1210;-57
2022/12/04 11:48:28;;;;;;;;;;;;;;;18.05;43.10;102106.84;5054919;28;1222;-57
2022/12/04 11:51:12;;;;;;;;;;;;;;;17.55;43.95;102111.19;5038465;28;1224;-57
2022/12/04 11:53:47;;;;;;;;;;;;;;;16.89;45.04;102105.25;5055939;28;1164;-58
2022/12/04 11:56:20;;;;;;;;;;;;;;;18.16;42.75;102109.75;5042125;28;1182;-57
2022/12/04 11:59:04;;;;;;;;;;;;;;;17.18;44.57;102097.03;5055584;28;917;-58
2022/12/04 12:01:39;;;;;;;;;;;;;;;16.80;45.07;102098.44;5043385;28;1800;-59
2022/12/04 12:04:04;;;;;;;;;;;;;;;17.42;44.11;102108.78;5055017;28;1159;-55
2022/12/04 12:06:45;;;;;;;;;;;;;;;16.72;45.35;102108.72;5042590;28;1143;-57
2022/12/04 12:09:17;;;;;;;;;;;;;;;18.39;42.35;102103.22;5033730;28;1176;-57
2022/12/04 12:11:48;;;;;;;;;;;;;;;17.12;44.99;102100.78;5041377;28;1171;-57
2022/12/04 12:14:20;;;;;;;;;;;;;;;17.15;45.17;102101.09;5055818;28;1194;-56
2022/12/04 12:16:48;;;;;;;;;;;;;;;17.33;44.29;102099.25;5055111;28;1199;-57
2022/12/04 12:19:32;;;;;;;;;;;;;;;18.15;42.77;102105.34;5055669;28;1132;-55
2022/12/04 12:22:01;;;;;;;;;;;;;;;18.89;40.77;102105.00;5055500;28;1902;-57
2022/12/04 12:24:56;;;;;;;;;;;;;;;17.48;43.83;102101.44;5055434;28;1397;-56
2022/12/04 12:27:30;;;;;;;;;;;;;;;17.07;44.60;102098.75;5032567;28;1185;-55
2022/12/04 12:29:55;;;;;;;;;;;;;;;17.83;43.51;102095.72;5046270;28;1155;-58
2022/12/04 12:32:39;;;;;;;;;;;;;;;17.32;44.42;102106.66;5059139;28;2520;-58
2022/12/04 12:35:12;;;;;;;;;;;;;;;16.85;44.86;102115.03;5052992;28;1207;-58
2022/12/04 12:37:43;;;;;;;;;;;;;;;18.04;42.92;102118.94;5041788;28;1140;-56
2022/12/04 12:40:22;;;;;;;;;;;;;;;17.03;45.17;102114.88;5041791;28;1037;-57
2022/12/04 12:43:00;;;;;;;;;;;;;;;19.11;41.00;102110.50;5046246;28;1967;-58
2022/12/04 12:45:34;;;;;;;;;;;;;;;17.78;43.55;102098.38;5041129;28;1196;-59
2022/12/04 12:48:03;;;;;;;;;;;;;;;17.73;43.94;102101.88;5059035;28;1175;-59
2022/12/04 12:50:39;;;;;;;;;;;;;;;18.26;42.40;102105.22;5041437;28;1180;-59
2022/12/04 12:53:08;;;;;;;;;;;;;;;17.26;44.32;102115.88;5041473;28;1248;-58
2022/12/04 12:56:06;;;;;;;;;;;;;;;16.99;44.58;102110.97;5041344;28;1163;-59
2022/12/04 12:58:31;;;;;;;;;;;;;;;17.43;44.13;102108.53;5029803;28;1267;-59
2022/12/04 13:00:58;;;;;;;;;;;;;;;16.93;44.92;102106.44;5055521;28;2341;-59
2022/12/04 13:03:27;;;;;;;;;;;;;;;18.43;42.33;102099.69;5043313;28;1979;-58
2022/12/04 13:05:54;;;;;;;;;;;;;;;17.21;44.82;102100.13;5054285;28;1199;-58